sensor_id;sensor_type;location;lat;lon;timestamp;P1;durP1;ratioP1;P2;durP2;ratioP2
20523;SDS011;10420;48.542;12.270;2023-04-25T00:03:02;4.97;;;2.57;;
20523;SDS011;10420;48.542;12.270;2023-04-25T00:08:05;7.53;;;2.97;;
20523;SDS011;10420;48.542;12.270;2023-04-25T00:13:05;4.53;;;3.07;;
20523;SDS011;10420;48.542;12.270;2023-04-25T00:18:08;5.13;;;3.13;;
20523;SDS011;10420;48.542;12.270;2023-04-25T00:23:09;3.67;;;2.63;;
20523;SDS011;10420;48.542;12.270;2023-04-25T00:28:10;3.20;;;2.70;;
20523;SDS011;10420;48.542;12.270;2023-04-25T00:33:12;5.73;;;2.83;;
20523;SDS011;10420;48.542;12.270;2023-04-25T00:38:12;3.67;;;2.80;;
20523;SDS011;10420;48.542;12.270;2023-04-25T00:43:13;5.20;;;2.80;;
20523;SDS011;10420;48.542;12.270;2023-04-25T00:48:14;3.10;;;2.53;;
20523;SDS011;10420;48.542;12.270;2023-04-25T00:53:14;7.03;;;3.03;;
20523;SDS011;10420;48.542;12.270;2023-04-25T00:58:15;5.47;;;3.30;;
20523;SDS011;10420;48.542;12.270;2023-04-25T01:03:22;6.63;;;3.53;;
20523;SDS011;10420;48.542;12.270;2023-04-25T01:08:24;6.10;;;3.33;;
20523;SDS011;10420;48.542;12.270;2023-04-25T01:13:27;4.83;;;3.23;;
20523;SDS011;10420;48.542;12.270;2023-04-25T01:18:27;4.30;;;3.27;;
20523;SDS011;10420;48.542;12.270;2023-04-25T01:23:28;10.33;;;3.00;;
20523;SDS011;10420;48.542;12.270;2023-04-25T01:28:29;6.30;;;3.30;;
20523;SDS011;10420;48.542;12.270;2023-04-25T01:33:30;5.60;;;3.40;;
20523;SDS011;10420;48.542;12.270;2023-04-25T01:38:31;7.60;;;3.27;;
20523;SDS011;10420;48.542;12.270;2023-04-25T01:43:32;4.53;;;3.17;;
20523;SDS011;10420;48.542;12.270;2023-04-25T01:48:33;5.77;;;3.33;;
20523;SDS011;10420;48.542;12.270;2023-04-25T01:53:33;6.50;;;3.13;;
20523;SDS011;10420;48.542;12.270;2023-04-25T01:58:34;9.17;;;3.40;;
20523;SDS011;10420;48.542;12.270;2023-04-25T02:03:35;8.67;;;3.47;;
20523;SDS011;10420;48.542;12.270;2023-04-25T02:08:37;5.57;;;3.50;;
20523;SDS011;10420;48.542;12.270;2023-04-25T02:13:38;5.80;;;3.10;;
20523;SDS011;10420;48.542;12.270;2023-04-25T02:18:38;5.07;;;3.07;;
20523;SDS011;10420;48.542;12.270;2023-04-25T02:23:39;5.33;;;3.10;;
20523;SDS011;10420;48.542;12.270;2023-04-25T02:28:40;4.07;;;2.83;;
20523;SDS011;10420;48.542;12.270;2023-04-25T02:33:41;6.70;;;2.60;;
20523;SDS011;10420;48.542;12.270;2023-04-25T02:38:42;4.07;;;2.93;;
20523;SDS011;10420;48.542;12.270;2023-04-25T02:43:43;6.40;;;3.17;;
20523;SDS011;10420;48.542;12.270;2023-04-25T02:48:43;9.70;;;2.80;;
20523;SDS011;10420;48.542;12.270;2023-04-25T02:53:44;6.37;;;3.30;;
20523;SDS011;10420;48.542;12.270;2023-04-25T02:58:45;7.80;;;2.77;;
20523;SDS011;10420;48.542;12.270;2023-04-25T03:03:45;4.90;;;2.90;;
20523;SDS011;10420;48.542;12.270;2023-04-25T03:08:46;7.03;;;3.33;;
20523;SDS011;10420;48.542;12.270;2023-04-25T03:13:47;4.50;;;3.30;;
20523;SDS011;10420;48.542;12.270;2023-04-25T03:18:47;7.07;;;3.30;;
20523;SDS011;10420;48.542;12.270;2023-04-25T03:23:49;4.73;;;3.27;;
20523;SDS011;10420;48.542;12.270;2023-04-25T03:28:50;5.60;;;3.33;;
20523;SDS011;10420;48.542;12.270;2023-04-25T03:33:51;5.00;;;3.30;;
20523;SDS011;10420;48.542;12.270;2023-04-25T03:38:51;6.00;;;3.67;;
20523;SDS011;10420;48.542;12.270;2023-04-25T03:43:52;4.90;;;3.20;;
20523;SDS011;10420;48.542;12.270;2023-04-25T03:48:53;6.87;;;3.40;;
20523;SDS011;10420;48.542;12.270;2023-04-25T03:53:53;5.47;;;3.40;;
20523;SDS011;10420;48.542;12.270;2023-04-25T03:58:54;6.33;;;3.47;;
20523;SDS011;10420;48.542;12.270;2023-04-25T04:03:54;7.83;;;3.73;;
20523;SDS011;10420;48.542;12.270;2023-04-25T04:08:55;5.70;;;3.60;;
20523;SDS011;10420;48.542;12.270;2023-04-25T04:13:56;5.27;;;3.20;;
20523;SDS011;10420;48.542;12.270;2023-04-25T04:18:57;8.37;;;3.33;;
20523;SDS011;10420;48.542;12.270;2023-04-25T04:23:57;4.63;;;3.20;;
20523;SDS011;10420;48.542;12.270;2023-04-25T04:28:59;5.80;;;3.47;;
20523;SDS011;10420;48.542;12.270;2023-04-25T04:34:00;6.37;;;3.43;;
20523;SDS011;10420;48.542;12.270;2023-04-25T04:39:01;7.30;;;3.77;;
20523;SDS011;10420;48.542;12.270;2023-04-25T04:44:04;6.10;;;3.80;;
20523;SDS011;10420;48.542;12.270;2023-04-25T04:49:06;5.23;;;3.43;;
20523;SDS011;10420;48.542;12.270;2023-04-25T04:54:08;6.67;;;3.90;;
20523;SDS011;10420;48.542;12.270;2023-04-25T04:59:09;7.20;;;3.97;;
20523;SDS011;10420;48.542;12.270;2023-04-25T05:04:10;7.17;;;3.30;;
20523;SDS011;10420;48.542;12.270;2023-04-25T05:09:10;7.50;;;3.87;;
20523;SDS011;10420;48.542;12.270;2023-04-25T05:14:11;5.90;;;4.03;;
20523;SDS011;10420;48.542;12.270;2023-04-25T05:19:12;6.17;;;3.67;;
20523;SDS011;10420;48.542;12.270;2023-04-25T05:24:13;11.67;;;4.63;;
20523;SDS011;10420;48.542;12.270;2023-04-25T05:29:14;5.67;;;3.20;;
20523;SDS011;10420;48.542;12.270;2023-04-25T05:34:14;4.10;;;2.75;;
20523;SDS011;10420;48.542;12.270;2023-04-25T05:39:16;6.45;;;2.53;;
20523;SDS011;10420;48.542;12.270;2023-04-25T05:44:17;4.38;;;3.03;;
20523;SDS011;10420;48.542;12.270;2023-04-25T05:49:18;6.45;;;3.92;;
20523;SDS011;10420;48.542;12.270;2023-04-25T05:54:18;5.55;;;3.22;;
20523;SDS011;10420;48.542;12.270;2023-04-25T05:59:19;4.65;;;3.25;;
20523;SDS011;10420;48.542;12.270;2023-04-25T06:04:20;4.10;;;2.70;;
20523;SDS011;10420;48.542;12.270;2023-04-25T06:09:20;6.30;;;2.60;;
20523;SDS011;10420;48.542;12.270;2023-04-25T06:14:21;6.07;;;2.67;;
20523;SDS011;10420;48.542;12.270;2023-04-25T06:19:22;3.95;;;2.40;;
20523;SDS011;10420;48.542;12.270;2023-04-25T06:24:22;6.40;;;3.10;;
20523;SDS011;10420;48.542;12.270;2023-04-25T06:29:23;4.03;;;2.45;;
20523;SDS011;10420;48.542;12.270;2023-04-25T06:34:23;5.60;;;2.50;;
20523;SDS011;10420;48.542;12.270;2023-04-25T06:39:24;4.40;;;2.38;;
20523;SDS011;10420;48.542;12.270;2023-04-25T06:44:25;5.00;;;2.40;;
20523;SDS011;10420;48.542;12.270;2023-04-25T06:49:26;7.57;;;3.00;;
20523;SDS011;10420;48.542;12.270;2023-04-25T06:54:27;6.32;;;2.35;;
20523;SDS011;10420;48.542;12.270;2023-04-25T06:59:29;11.93;;;2.83;;
20523;SDS011;10420;48.542;12.270;2023-04-25T07:04:30;6.00;;;2.88;;
20523;SDS011;10420;48.542;12.270;2023-04-25T07:09:30;5.22;;;3.38;;
20523;SDS011;10420;48.542;12.270;2023-04-25T07:14:33;4.03;;;2.85;;
20523;SDS011;10420;48.542;12.270;2023-04-25T07:19:34;4.85;;;2.40;;
20523;SDS011;10420;48.542;12.270;2023-04-25T07:24:35;4.05;;;2.58;;
20523;SDS011;10420;48.542;12.270;2023-04-25T07:29:35;4.82;;;2.25;;
20523;SDS011;10420;48.542;12.270;2023-04-25T07:34:37;4.25;;;2.10;;
20523;SDS011;10420;48.542;12.270;2023-04-25T07:39:38;2.72;;;1.90;;
20523;SDS011;10420;48.542;12.270;2023-04-25T07:44:39;3.22;;;2.00;;
20523;SDS011;10420;48.542;12.270;2023-04-25T07:49:41;3.03;;;2.00;;
20523;SDS011;10420;48.542;12.270;2023-04-25T07:54:41;5.32;;;2.00;;
20523;SDS011;10420;48.542;12.270;2023-04-25T07:59:42;3.80;;;2.20;;
20523;SDS011;10420;48.542;12.270;2023-04-25T08:04:42;7.10;;;2.80;;
20523;SDS011;10420;48.542;12.270;2023-04-25T08:09:43;6.13;;;2.85;;
20523;SDS011;10420;48.542;12.270;2023-04-25T08:14:44;5.93;;;2.90;;
20523;SDS011;10420;48.542;12.270;2023-04-25T08:19:44;5.57;;;3.40;;
20523;SDS011;10420;48.542;12.270;2023-04-25T08:24:45;5.17;;;2.90;;
20523;SDS011;10420;48.542;12.270;2023-04-25T08:29:46;6.63;;;3.03;;
20523;SDS011;10420;48.542;12.270;2023-04-25T08:34:47;5.07;;;2.87;;
20523;SDS011;10420;48.542;12.270;2023-04-25T08:39:47;7.57;;;3.70;;
20523;SDS011;10420;48.542;12.270;2023-04-25T08:44:48;5.80;;;3.40;;
20523;SDS011;10420;48.542;12.270;2023-04-25T08:49:50;6.47;;;3.20;;
20523;SDS011;10420;48.542;12.270;2023-04-25T08:54:54;5.55;;;2.58;;
20523;SDS011;10420;48.542;12.270;2023-04-25T08:59:56;3.63;;;2.58;;
20523;SDS011;10420;48.542;12.270;2023-04-25T09:04:57;4.38;;;2.95;;
20523;SDS011;10420;48.542;12.270;2023-04-25T09:09:59;4.47;;;2.60;;
20523;SDS011;10420;48.542;12.270;2023-04-25T09:15:06;6.20;;;2.30;;
20523;SDS011;10420;48.542;12.270;2023-04-25T09:25:11;3.17;;;2.40;;
20523;SDS011;10420;48.542;12.270;2023-04-25T09:30:15;5.27;;;2.60;;
20523;SDS011;10420;48.542;12.270;2023-04-25T09:35:25;4.95;;;2.70;;
20523;SDS011;10420;48.542;12.270;2023-04-25T09:40:26;3.88;;;1.70;;
20523;SDS011;10420;48.542;12.270;2023-04-25T09:45:29;6.68;;;2.10;;
20523;SDS011;10420;48.542;12.270;2023-04-25T09:50:32;4.15;;;1.85;;
20523;SDS011;10420;48.542;12.270;2023-04-25T09:55:32;9.33;;;2.10;;
20523;SDS011;10420;48.542;12.270;2023-04-25T10:00:34;2.00;;;1.70;;
20523;SDS011;10420;48.542;12.270;2023-04-25T10:05:35;3.93;;;1.80;;
20523;SDS011;10420;48.542;12.270;2023-04-25T10:10:37;4.57;;;1.90;;
20523;SDS011;10420;48.542;12.270;2023-04-25T10:15:40;1.50;;;1.40;;
20523;SDS011;10420;48.542;12.270;2023-04-25T10:20:41;4.90;;;1.87;;
20523;SDS011;10420;48.542;12.270;2023-04-25T10:25:42;2.23;;;1.60;;
20523;SDS011;10420;48.542;12.270;2023-04-25T10:30:56;2.43;;;1.57;;
20523;SDS011;10420;48.542;12.270;2023-04-25T10:36:14;3.30;;;1.90;;
20523;SDS011;10420;48.542;12.270;2023-04-25T10:41:19;2.07;;;1.60;;
20523;SDS011;10420;48.542;12.270;2023-04-25T10:46:24;5.33;;;1.83;;
20523;SDS011;10420;48.542;12.270;2023-04-25T10:51:27;2.73;;;1.90;;
20523;SDS011;10420;48.542;12.270;2023-04-25T10:56:29;5.83;;;3.00;;
20523;SDS011;10420;48.542;12.270;2023-04-25T11:01:40;4.23;;;2.53;;
20523;SDS011;10420;48.542;12.270;2023-04-25T11:07:26;6.53;;;3.40;;
20523;SDS011;10420;48.542;12.270;2023-04-25T11:12:10;8.10;;;4.07;;
20523;SDS011;10420;48.542;12.270;2023-04-25T11:17:14;6.53;;;4.60;;
20523;SDS011;10420;48.542;12.270;2023-04-25T11:22:15;8.30;;;5.87;;
20523;SDS011;10420;48.542;12.270;2023-04-25T11:27:16;4.77;;;3.27;;
20523;SDS011;10420;48.542;12.270;2023-04-25T11:32:17;3.33;;;2.80;;
20523;SDS011;10420;48.542;12.270;2023-04-25T11:37:18;3.23;;;1.70;;
20523;SDS011;10420;48.542;12.270;2023-04-25T11:42:18;1.30;;;1.20;;
20523;SDS011;10420;48.542;12.270;2023-04-25T11:47:20;1.10;;;1.10;;
20523;SDS011;10420;48.542;12.270;2023-04-25T11:52:20;1.35;;;1.25;;
20523;SDS011;10420;48.542;12.270;2023-04-25T11:57:21;2.55;;;2.05;;
20523;SDS011;10420;48.542;12.270;2023-04-25T12:02:25;2.80;;;2.45;;
20523;SDS011;10420;48.542;12.270;2023-04-25T12:07:29;3.13;;;2.83;;
20523;SDS011;10420;48.542;12.270;2023-04-25T12:12:33;7.05;;;2.60;;
20523;SDS011;10420;48.542;12.270;2023-04-25T12:17:35;2.92;;;2.53;;
20523;SDS011;10420;48.542;12.270;2023-04-25T12:22:37;3.38;;;2.80;;
20523;SDS011;10420;48.542;12.270;2023-04-25T12:27:40;2.80;;;2.53;;
20523;SDS011;10420;48.542;12.270;2023-04-25T12:32:42;4.38;;;2.60;;
20523;SDS011;10420;48.542;12.270;2023-04-25T12:37:42;2.17;;;1.95;;
20523;SDS011;10420;48.542;12.270;2023-04-25T12:42:43;2.80;;;2.30;;
20523;SDS011;10420;48.542;12.270;2023-04-25T12:47:43;4.22;;;2.90;;
20523;SDS011;10420;48.542;12.270;2023-04-25T12:52:45;3.83;;;2.90;;
20523;SDS011;10420;48.542;12.270;2023-04-25T12:57:46;9.53;;;6.27;;
20523;SDS011;10420;48.542;12.270;2023-04-25T13:02:46;5.40;;;3.47;;
20523;SDS011;10420;48.542;12.270;2023-04-25T13:07:47;6.53;;;3.17;;
20523;SDS011;10420;48.542;12.270;2023-04-25T13:12:47;3.58;;;2.95;;
20523;SDS011;10420;48.542;12.270;2023-04-25T13:17:48;7.45;;;3.70;;
20523;SDS011;10420;48.542;12.270;2023-04-25T13:22:49;4.03;;;2.70;;
20523;SDS011;10420;48.542;12.270;2023-04-25T13:27:49;4.03;;;3.08;;
20523;SDS011;10420;48.542;12.270;2023-04-25T13:32:50;3.30;;;3.00;;
20523;SDS011;10420;48.542;12.270;2023-04-25T13:37:51;4.47;;;2.97;;
20523;SDS011;10420;48.542;12.270;2023-04-25T13:42:51;4.53;;;3.33;;
20523;SDS011;10420;48.542;12.270;2023-04-25T13:47:52;3.70;;;3.10;;
20523;SDS011;10420;48.542;12.270;2023-04-25T13:52:53;3.95;;;2.97;;
20523;SDS011;10420;48.542;12.270;2023-04-25T13:57:54;4.10;;;3.47;;
20523;SDS011;10420;48.542;12.270;2023-04-25T14:02:54;3.40;;;3.10;;
20523;SDS011;10420;48.542;12.270;2023-04-25T14:07:55;7.70;;;3.17;;
20523;SDS011;10420;48.542;12.270;2023-04-25T14:12:56;5.33;;;3.60;;
20523;SDS011;10420;48.542;12.270;2023-04-25T14:17:56;5.40;;;3.70;;
20523;SDS011;10420;48.542;12.270;2023-04-25T14:22:57;3.53;;;2.60;;
20523;SDS011;10420;48.542;12.270;2023-04-25T14:27:58;3.00;;;2.70;;
20523;SDS011;10420;48.542;12.270;2023-04-25T14:32:58;4.67;;;3.20;;
20523;SDS011;10420;48.542;12.270;2023-04-25T14:37:59;3.53;;;3.17;;
20523;SDS011;10420;48.542;12.270;2023-04-25T14:43:00;6.67;;;3.60;;
20523;SDS011;10420;48.542;12.270;2023-04-25T14:48:00;3.73;;;3.00;;
20523;SDS011;10420;48.542;12.270;2023-04-25T14:53:01;4.57;;;3.20;;
20523;SDS011;10420;48.542;12.270;2023-04-25T14:58:02;6.63;;;2.60;;
20523;SDS011;10420;48.542;12.270;2023-04-25T15:03:03;2.50;;;2.30;;
20523;SDS011;10420;48.542;12.270;2023-04-25T15:08:04;5.30;;;3.97;;
20523;SDS011;10420;48.542;12.270;2023-04-25T15:13:05;4.87;;;3.50;;
20523;SDS011;10420;48.542;12.270;2023-04-25T15:18:05;6.13;;;3.63;;
20523;SDS011;10420;48.542;12.270;2023-04-25T15:23:06;5.67;;;3.23;;
20523;SDS011;10420;48.542;12.270;2023-04-25T15:28:07;3.53;;;2.80;;
20523;SDS011;10420;48.542;12.270;2023-04-25T15:33:07;5.50;;;4.07;;
20523;SDS011;10420;48.542;12.270;2023-04-25T15:38:08;5.63;;;3.73;;
20523;SDS011;10420;48.542;12.270;2023-04-25T15:43:10;5.07;;;3.53;;
20523;SDS011;10420;48.542;12.270;2023-04-25T15:48:14;5.43;;;4.13;;
20523;SDS011;10420;48.542;12.270;2023-04-25T15:53:15;6.60;;;5.00;;
20523;SDS011;10420;48.542;12.270;2023-04-25T15:58:16;8.17;;;5.60;;
20523;SDS011;10420;48.542;12.270;2023-04-25T16:03:16;6.40;;;4.80;;
20523;SDS011;10420;48.542;12.270;2023-04-25T16:08:17;12.27;;;6.47;;
20523;SDS011;10420;48.542;12.270;2023-04-25T16:13:18;7.40;;;4.53;;
20523;SDS011;10420;48.542;12.270;2023-04-25T16:18:18;5.93;;;4.10;;
20523;SDS011;10420;48.542;12.270;2023-04-25T16:23:19;6.03;;;4.10;;
20523;SDS011;10420;48.542;12.270;2023-04-25T16:28:19;5.23;;;4.00;;
20523;SDS011;10420;48.542;12.270;2023-04-25T16:33:20;7.60;;;4.37;;
20523;SDS011;10420;48.542;12.270;2023-04-25T16:38:20;5.93;;;4.23;;
20523;SDS011;10420;48.542;12.270;2023-04-25T16:43:21;5.40;;;3.43;;
20523;SDS011;10420;48.542;12.270;2023-04-25T16:48:22;5.23;;;3.70;;
20523;SDS011;10420;48.542;12.270;2023-04-25T16:53:23;5.27;;;3.10;;
20523;SDS011;10420;48.542;12.270;2023-04-25T16:58:24;7.97;;;3.43;;
20523;SDS011;10420;48.542;12.270;2023-04-25T17:03:26;4.93;;;3.60;;
20523;SDS011;10420;48.542;12.270;2023-04-25T17:08:27;6.50;;;3.80;;
20523;SDS011;10420;48.542;12.270;2023-04-25T17:13:28;5.57;;;4.00;;
20523;SDS011;10420;48.542;12.270;2023-04-25T17:18:30;6.00;;;3.73;;
20523;SDS011;10420;48.542;12.270;2023-04-25T17:23:31;4.83;;;3.30;;
20523;SDS011;10420;48.542;12.270;2023-04-25T17:28:33;4.50;;;3.53;;
20523;SDS011;10420;48.542;12.270;2023-04-25T17:33:33;8.70;;;4.73;;
20523;SDS011;10420;48.542;12.270;2023-04-25T17:38:34;5.87;;;3.83;;
20523;SDS011;10420;48.542;12.270;2023-04-25T17:43:35;9.10;;;5.33;;
20523;SDS011;10420;48.542;12.270;2023-04-25T17:48:36;5.93;;;4.17;;
20523;SDS011;10420;48.542;12.270;2023-04-25T17:53:37;10.63;;;6.00;;
20523;SDS011;10420;48.542;12.270;2023-04-25T17:58:37;8.17;;;5.37;;
20523;SDS011;10420;48.542;12.270;2023-04-25T18:03:38;10.60;;;7.40;;
20523;SDS011;10420;48.542;12.270;2023-04-25T18:08:40;9.13;;;4.67;;
20523;SDS011;10420;48.542;12.270;2023-04-25T18:13:41;10.27;;;5.83;;
20523;SDS011;10420;48.542;12.270;2023-04-25T18:18:42;9.63;;;5.07;;
20523;SDS011;10420;48.542;12.270;2023-04-25T18:23:45;6.50;;;4.87;;
20523;SDS011;10420;48.542;12.270;2023-04-25T18:28:46;11.93;;;6.47;;
20523;SDS011;10420;48.542;12.270;2023-04-25T18:33:47;14.73;;;8.17;;
20523;SDS011;10420;48.542;12.270;2023-04-25T18:38:48;8.00;;;5.53;;
20523;SDS011;10420;48.542;12.270;2023-04-25T18:43:53;6.83;;;4.80;;
20523;SDS011;10420;48.542;12.270;2023-04-25T18:48:58;12.10;;;5.80;;
20523;SDS011;10420;48.542;12.270;2023-04-25T18:54:00;9.63;;;5.80;;
20523;SDS011;10420;48.542;12.270;2023-04-25T18:59:01;16.03;;;7.83;;
20523;SDS011;10420;48.542;12.270;2023-04-25T19:04:01;22.97;;;11.77;;
20523;SDS011;10420;48.542;12.270;2023-04-25T19:09:03;12.67;;;7.40;;
20523;SDS011;10420;48.542;12.270;2023-04-25T19:14:03;19.80;;;10.60;;
20523;SDS011;10420;48.542;12.270;2023-04-25T19:19:04;14.57;;;7.80;;
20523;SDS011;10420;48.542;12.270;2023-04-25T19:24:06;12.80;;;7.00;;
20523;SDS011;10420;48.542;12.270;2023-04-25T19:29:11;23.70;;;10.37;;
20523;SDS011;10420;48.542;12.270;2023-04-25T19:34:13;19.77;;;9.47;;
20523;SDS011;10420;48.542;12.270;2023-04-25T19:39:14;13.67;;;6.73;;
20523;SDS011;10420;48.542;12.270;2023-04-25T19:44:14;13.50;;;6.93;;
20523;SDS011;10420;48.542;12.270;2023-04-25T19:49:15;21.53;;;8.80;;
20523;SDS011;10420;48.542;12.270;2023-04-25T19:54:16;11.20;;;5.33;;
20523;SDS011;10420;48.542;12.270;2023-04-25T19:59:16;18.00;;;8.87;;
20523;SDS011;10420;48.542;12.270;2023-04-25T20:04:17;13.07;;;6.70;;
20523;SDS011;10420;48.542;12.270;2023-04-25T20:09:18;8.70;;;5.97;;
20523;SDS011;10420;48.542;12.270;2023-04-25T20:14:19;9.57;;;5.67;;
20523;SDS011;10420;48.542;12.270;2023-04-25T20:19:20;8.30;;;4.70;;
20523;SDS011;10420;48.542;12.270;2023-04-25T20:24:22;9.40;;;5.37;;
20523;SDS011;10420;48.542;12.270;2023-04-25T20:29:23;7.73;;;5.17;;
20523;SDS011;10420;48.542;12.270;2023-04-25T20:34:25;9.03;;;5.03;;
20523;SDS011;10420;48.542;12.270;2023-04-25T20:39:28;11.40;;;6.13;;
20523;SDS011;10420;48.542;12.270;2023-04-25T20:44:29;9.27;;;5.60;;
20523;SDS011;10420;48.542;12.270;2023-04-25T20:49:31;14.23;;;6.27;;
20523;SDS011;10420;48.542;12.270;2023-04-25T20:54:31;12.67;;;6.30;;
20523;SDS011;10420;48.542;12.270;2023-04-25T20:59:32;11.63;;;6.10;;
20523;SDS011;10420;48.542;12.270;2023-04-25T21:04:33;10.53;;;6.07;;
20523;SDS011;10420;48.542;12.270;2023-04-25T21:09:34;11.57;;;6.00;;
20523;SDS011;10420;48.542;12.270;2023-04-25T21:14:34;10.83;;;5.43;;
20523;SDS011;10420;48.542;12.270;2023-04-25T21:19:35;12.63;;;5.73;;
20523;SDS011;10420;48.542;12.270;2023-04-25T21:24:36;10.53;;;6.30;;
20523;SDS011;10420;48.542;12.270;2023-04-25T21:29:36;9.43;;;5.50;;
20523;SDS011;10420;48.542;12.270;2023-04-25T21:34:37;12.03;;;6.03;;
20523;SDS011;10420;48.542;12.270;2023-04-25T21:39:37;10.10;;;5.77;;
20523;SDS011;10420;48.542;12.270;2023-04-25T21:44:38;11.43;;;5.83;;
20523;SDS011;10420;48.542;12.270;2023-04-25T21:49:39;13.83;;;6.70;;
20523;SDS011;10420;48.542;12.270;2023-04-25T21:54:40;13.30;;;6.50;;
20523;SDS011;10420;48.542;12.270;2023-04-25T21:59:41;10.27;;;5.87;;
20523;SDS011;10420;48.542;12.270;2023-04-25T22:04:42;12.77;;;6.00;;
20523;SDS011;10420;48.542;12.270;2023-04-25T22:09:44;11.80;;;6.27;;
20523;SDS011;10420;48.542;12.270;2023-04-25T22:14:44;13.03;;;6.43;;
20523;SDS011;10420;48.542;12.270;2023-04-25T22:19:46;11.20;;;5.70;;
20523;SDS011;10420;48.542;12.270;2023-04-25T22:24:47;11.57;;;7.03;;
20523;SDS011;10420;48.542;12.270;2023-04-25T22:29:48;9.90;;;6.23;;
20523;SDS011;10420;48.542;12.270;2023-04-25T22:34:49;12.07;;;6.87;;
20523;SDS011;10420;48.542;12.270;2023-04-25T22:39:50;11.53;;;6.47;;
20523;SDS011;10420;48.542;12.270;2023-04-25T22:44:51;11.47;;;6.30;;
20523;SDS011;10420;48.542;12.270;2023-04-25T22:49:52;12.27;;;6.70;;
20523;SDS011;10420;48.542;12.270;2023-04-25T22:54:53;16.07;;;7.10;;
20523;SDS011;10420;48.542;12.270;2023-04-25T22:59:55;14.43;;;7.70;;
20523;SDS011;10420;48.542;12.270;2023-04-25T23:04:56;13.97;;;8.20;;
20523;SDS011;10420;48.542;12.270;2023-04-25T23:09:59;19.87;;;8.50;;
20523;SDS011;10420;48.542;12.270;2023-04-25T23:14:59;15.47;;;8.03;;
20523;SDS011;10420;48.542;12.270;2023-04-25T23:20:02;17.17;;;7.87;;
20523;SDS011;10420;48.542;12.270;2023-04-25T23:25:06;17.47;;;9.23;;
20523;SDS011;10420;48.542;12.270;2023-04-25T23:30:08;16.53;;;8.53;;
20523;SDS011;10420;48.542;12.270;2023-04-25T23:35:09;19.50;;;8.60;;
20523;SDS011;10420;48.542;12.270;2023-04-25T23:40:10;11.27;;;7.00;;
20523;SDS011;10420;48.542;12.270;2023-04-25T23:45:11;13.27;;;7.10;;
20523;SDS011;10420;48.542;12.270;2023-04-25T23:50:13;10.83;;;6.47;;
20523;SDS011;10420;48.542;12.270;2023-04-25T23:55:14;9.67;;;5.87;;
